Time,TemperatureF,DewpointF,PressureIn,WindDirection,WindDirectionDegrees,WindSpeedMPH,WindSpeedGustMPH,Humidity,HourlyPrecipIn,Conditions,Clouds,dailyrainin,SolarRadiationWatts/m^2,SoftwareType,DateUTC
2013-09-13 00:01:00,71.8,62.3,29.75,West,273,0.1,1.5,72,0.00,BKN,,0.00,0.0,WeatherDisplay:10.37,2013-09-13 04:01:00,
2013-09-13 00:03:00,71.6,62.1,29.75,West,273,0.0,0.0,72,0.00,OVC,,0.00,0.0,WeatherDisplay:10.37,2013-09-13 04:03:00,
2013-09-13 00:04:00,71.5,62.0,29.75,West,273,0.1,0.0,72,0.00,OVC,,0.00,0.0,WeatherDisplay:10.37,2013-09-13 04:04:00,
2013-09-13 00:09:00,70.9,61.8,29.75,West,273,0.0,0.0,73,0.00,OVC,,0.00,0.0,WeatherDisplay:10.37,2013-09-13 04:09:00,
2013-09-13 00:14:00,70.4,61.7,29.75,West,273,0.1,0.0,74,0.00,OVC,,0.00,0.0,WeatherDisplay:10.37,2013-09-13 04:14:00,
2013-09-13 00:19:00,70.1,61.8,29.75,West,273,0.1,1.5,75,0.00,OVC,,0.00,0.0,WeatherDisplay:10.37,2013-09-13 04:19:00,
2013-09-13 00:24:00,70.1,62.2,29.75,West,273,0.0,0.0,76,0.00,OVC,,0.00,0.0,WeatherDisplay:10.37,2013-09-13 04:24:00,
2013-09-13 00:29:00,69.8,61.9,29.75,West,273,0.0,0.0,76,0.00,OVC,,0.00,0.0,WeatherDisplay:10.37,2013-09-13 04:29:00,
2013-09-13 00:34:00,69.4,61.9,29.75,West,273,0.0,0.0,77,0.00,OVC,,0.00,0.0,WeatherDisplay:10.37,2013-09-13 04:34:00,
2013-09-13 00:39:00,69.3,61.8,29.75,West,273,0.0,0.0,77,0.00,OVC,,0.00,0.0,WeatherDisplay:10.37,2013-09-13 04:39:00,
2013-09-13 00:44:00,68.9,61.4,29.75,West,273,0.0,0.0,77,0.00,OVC,,0.00,0.0,WeatherDisplay:10.37,2013-09-13 04:44:00,
2013-09-13 00:49:00,68.6,61.5,29.75,West,273,0.0,0.0,78,0.00,OVC,,0.00,0.0,WeatherDisplay:10.37,2013-09-13 04:49:00,
2013-09-13 00:54:00,68.4,61.3,29.74,West,273,0.0,0.0,78,0.00,OVC,,0.00,0.0,WeatherDisplay:10.37,2013-09-13 04:54:00,
2013-09-13 00:59:00,68.4,61.6,29.74,West,273,0.0,0.0,79,0.00,OVC,,0.00,0.0,WeatherDisplay:10.37,2013-09-13 04:59:00,
2013-09-13 01:04:00,68.3,61.5,29.74,West,273,0.0,0.0,79,0.00,OVC,,0.00,0.0,WeatherDisplay:10.37,2013-09-13 05:04:00,
2013-09-13 01:09:00,67.9,61.1,29.74,West,273,0.0,0.0,79,0.00,OVC,,0.00,0.0,WeatherDisplay:10.37,2013-09-13 05:09:00,
2013-09-13 01:14:00,67.8,61.4,29.74,West,273,0.0,0.0,80,0.00,OVC,,0.00,0.0,WeatherDisplay:10.37,2013-09-13 05:14:00,
2013-09-13 01:19:00,67.8,61.8,29.74,West,273,0.0,0.0,81,0.00,OVC,,0.00,0.0,WeatherDisplay:10.37,2013-09-13 05:19:00,
2013-09-13 01:24:00,68.1,61.7,29.74,West,273,0.0,0.0,80,0.00,OVC,,0.00,0.0,WeatherDisplay:10.37,2013-09-13 05:24:00,
2013-09-13 01:29:00,68.6,61.8,29.74,West,273,0.1,1.2,79,0.00,OVC,,0.00,0.0,WeatherDisplay:10.37,2013-09-13 05:29:00,
2013-09-13 01:34:00,68.9,61.4,29.74,West,273,0.1,0.0,77,0.00,OVC,,0.00,0.0,WeatherDisplay:10.37,2013-09-13 05:34:00,
2013-09-13 01:39:00,69.1,61.2,29.73,West,273,0.1,1.2,76,0.00,OVC,,0.00,0.0,WeatherDisplay:10.37,2013-09-13 05:39:00,
2013-09-13 01:44:00,69.3,61.0,29.73,West,273,0.0,0.0,75,0.00,OVC,,0.00,0.0,WeatherDisplay:10.37,2013-09-13 05:44:00,
2013-09-13 01:49:00,69.1,60.8,29.73,West,273,0.0,0.0,75,0.00,OVC,,0.00,0.0,WeatherDisplay:10.37,2013-09-13 05:49:00,
2013-09-13 01:54:00,68.9,60.3,29.73,West,273,0.0,0.0,74,0.00,OVC,,0.00,0.0,WeatherDisplay:10.37,2013-09-13 05:54:00,
2013-09-13 01:59:00,68.6,60.4,29.73,West,273,0.0,0.0,75,0.00,OVC,,0.00,0.0,WeatherDisplay:10.37,2013-09-13 05:59:00,
2013-09-13 02:04:00,68.4,60.2,29.73,West,273,0.0,0.0,75,0.00,OVC,,0.00,0.0,WeatherDisplay:10.37,2013-09-13 06:04:00,
2013-09-13 02:09:00,68.1,59.9,29.73,West,273,0.0,0.0,75,0.00,OVC,,0.00,0.0,WeatherDisplay:10.37,2013-09-13 06:09:00,
2013-09-13 02:14:00,67.9,60.1,29.73,West,273,0.0,0.0,76,0.00,SCT,,0.00,0.0,WeatherDisplay:10.37,2013-09-13 06:14:00,
2013-09-13 02:19:00,67.9,60.1,29.73,West,273,0.0,0.0,76,0.00,SCT,,0.00,0.0,WeatherDisplay:10.37,2013-09-13 06:19:00,
2013-09-13 02:24:00,67.8,60.0,29.72,West,273,0.0,0.0,76,0.00,SCT,,0.00,0.0,WeatherDisplay:10.37,2013-09-13 06:24:00,
2013-09-13 02:29:00,67.6,60.1,29.73,West,273,0.0,0.0,77,0.00,SCT,,0.00,0.0,WeatherDisplay:10.37,2013-09-13 06:29:00,
2013-09-13 02:34:00,67.4,59.9,29.73,West,273,0.0,0.0,77,0.00,SCT,,0.00,0.0,WeatherDisplay:10.37,2013-09-13 06:34:00,
2013-09-13 02:39:00,67.3,59.8,29.72,West,273,0.0,0.0,77,0.00,SCT,,0.00,0.0,WeatherDisplay:10.37,2013-09-13 06:39:00,
2013-09-13 02:44:00,66.8,59.7,29.72,West,273,0.0,0.0,78,0.00,SCT,,0.00,0.0,WeatherDisplay:10.37,2013-09-13 06:44:00,
2013-09-13 02:49:00,66.3,59.2,29.71,West,273,0.1,1.5,78,0.00,SCT,,0.00,0.0,WeatherDisplay:10.37,2013-09-13 06:49:00,
2013-09-13 02:54:00,66.1,59.4,29.72,West,273,0.0,0.0,79,0.00,SCT,,0.00,0.0,WeatherDisplay:10.37,2013-09-13 06:54:00,
2013-09-13 02:59:00,66.0,59.7,29.73,West,273,0.0,0.0,80,0.00,SCT,,0.00,0.0,WeatherDisplay:10.37,2013-09-13 06:59:00,
2013-09-13 03:04:00,66.3,60.3,29.73,West,273,0.2,1.5,81,0.00,SCT,,0.00,0.0,WeatherDisplay:10.37,2013-09-13 07:04:00,
2013-09-13 03:10:00,66.4,60.7,29.73,West,273,0.0,0.0,82,0.00,SCT,,0.00,0.0,WeatherDisplay:10.37,2013-09-13 07:10:00,
2013-09-13 03:15:00,66.6,60.6,29.73,NNW,333,7.8,9.2,81,0.00,FEW,,0.00,0.0,WeatherDisplay:10.37,2013-09-13 07:15:00,
2013-09-13 03:20:00,67.1,60.0,29.73,NNW,329,9.1,15.0,78,0.00,FEW,,0.00,0.0,WeatherDisplay:10.37,2013-09-13 07:20:00,
2013-09-13 03:25:00,67.4,59.2,29.73,NNW,343,5.2,8.1,75,0.00,FEW,,0.00,0.0,WeatherDisplay:10.37,2013-09-13 07:25:00,
2013-09-13 03:30:00,67.6,58.6,29.73,NNW,333,0.8,5.8,73,0.00,FEW,,0.00,0.0,WeatherDisplay:10.37,2013-09-13 07:30:00,
2013-09-13 03:35:00,67.8,58.4,29.73,NW,307,6.1,7.5,72,0.00,FEW,,0.00,0.0,WeatherDisplay:10.37,2013-09-13 07:35:00,
2013-09-13 03:40:00,67.8,58.1,29.73,NNW,327,4.3,8.1,71,0.00,FEW,,0.00,0.0,WeatherDisplay:10.37,2013-09-13 07:40:00,
2013-09-13 03:45:00,67.8,58.1,29.73,NW,317,0.5,3.5,71,0.00,FEW,,0.00,0.0,WeatherDisplay:10.37,2013-09-13 07:45:00,
2013-09-13 03:50:00,67.8,58.1,29.73,NW,321,6.0,8.1,71,0.00,FEW,,0.00,0.0,WeatherDisplay:10.37,2013-09-13 07:50:00,
2013-09-13 03:55:00,67.6,57.9,29.74,NW,324,0.2,8.1,71,0.00,FEW,,0.00,0.0,WeatherDisplay:10.37,2013-09-13 07:55:00,
2013-09-13 04:00:00,67.4,58.1,29.74,NNW,345,3.1,7.5,72,0.00,FEW,,0.00,0.0,WeatherDisplay:10.37,2013-09-13 08:00:00,
2013-09-13 04:05:00,67.3,58.0,29.74,NNW,347,0.6,4.6,72,0.00,FEW,,0.00,0.0,WeatherDisplay:10.37,2013-09-13 08:05:00,
2013-09-13 04:10:00,66.9,57.6,29.74,NW,323,5.7,9.2,72,0.00,FEW,,0.00,0.0,WeatherDisplay:10.37,2013-09-13 08:10:00,
2013-09-13 04:15:00,66.8,57.9,29.74,North,5,4.8,10.5,73,0.00,FEW,,0.00,0.0,WeatherDisplay:10.37,2013-09-13 08:15:00,
2013-09-13 04:20:00,66.4,57.5,29.74,North,355,1.0,8.1,73,0.00,FEW,,0.00,0.0,WeatherDisplay:10.37,2013-09-13 08:20:00,
2013-09-13 04:25:00,66.3,57.4,29.74,NW,325,1.8,4.6,73,0.00,FEW,,0.00,0.0,WeatherDisplay:10.37,2013-09-13 08:25:00,
2013-09-13 04:30:00,66.3,57.4,29.74,NW,317,0.7,3.5,73,0.00,FEW,,0.00,0.0,WeatherDisplay:10.37,2013-09-13 08:30:00,
2013-09-13 04:35:00,66.3,57.4,29.74,North,355,0.9,3.5,73,0.00,FEW,,0.00,0.0,WeatherDisplay:10.37,2013-09-13 08:35:00,
2013-09-13 04:40:00,66.3,57.4,29.74,NNE,14,6.4,8.1,73,0.00,FEW,,0.00,0.0,WeatherDisplay:10.37,2013-09-13 08:40:00,
2013-09-13 04:45:00,66.3,57.4,29.74,WNW,286,0.1,1.5,73,0.00,FEW,,0.00,0.0,WeatherDisplay:10.37,2013-09-13 08:45:00,
2013-09-13 04:50:00,66.3,57.4,29.75,NW,311,1.9,3.5,73,0.00,FEW,,0.00,0.0,WeatherDisplay:10.37,2013-09-13 08:50:00,
2013-09-13 04:55:00,66.4,57.5,29.75,NNW,331,0.6,3.0,73,0.00,FEW,,0.00,0.0,WeatherDisplay:10.37,2013-09-13 08:55:00,
2013-09-13 05:00:00,66.4,57.5,29.75,NW,324,4.2,7.5,73,0.00,FEW,,0.00,0.0,WeatherDisplay:10.37,2013-09-13 09:00:00,
2013-09-13 05:05:00,66.4,57.1,29.75,NW,306,4.6,10.4,72,0.00,BKN,,0.00,0.0,WeatherDisplay:10.37,2013-09-13 09:05:00,
2013-09-13 05:10:00,66.4,57.1,29.75,NW,308,1.1,1.5,72,0.00,BKN,,0.00,0.0,WeatherDisplay:10.37,2013-09-13 09:10:00,
2013-09-13 05:15:00,66.4,57.1,29.75,NW,308,0.0,0.0,72,0.00,BKN,,0.00,0.0,WeatherDisplay:10.37,2013-09-13 09:15:00,
2013-09-13 05:20:00,66.3,57.0,29.75,WNW,301,0.5,4.6,72,0.00,BKN,,0.00,0.0,WeatherDisplay:10.37,2013-09-13 09:20:00,
2013-09-13 05:25:00,66.3,57.4,29.75,NW,316,2.1,8.1,73,0.00,BKN,,0.00,0.0,WeatherDisplay:10.37,2013-09-13 09:25:00,
2013-09-13 05:30:00,66.1,56.8,29.75,NW,310,7.4,9.2,72,0.00,BKN,,0.00,0.0,WeatherDisplay:10.37,2013-09-13 09:30:00,
2013-09-13 05:35:00,66.1,56.4,29.75,WNW,294,4.7,8.1,71,0.00,BKN,,0.00,0.0,WeatherDisplay:10.37,2013-09-13 09:35:00,
2013-09-13 05:40:00,66.1,56.4,29.75,NNW,328,9.1,10.5,71,0.00,BKN,,0.00,0.0,WeatherDisplay:10.37,2013-09-13 09:40:00,
2013-09-13 05:45:00,66.1,56.0,29.76,NW,320,3.1,6.0,70,0.00,BKN,,0.00,0.0,WeatherDisplay:10.37,2013-09-13 09:45:00,
2013-09-13 05:50:00,66.0,55.5,29.76,NNW,332,12.8,15.0,69,0.00,BKN,,0.00,0.0,WeatherDisplay:10.37,2013-09-13 09:50:00,
2013-09-13 05:55:00,66.1,55.6,29.76,NW,321,6.7,9.2,69,0.00,BKN,,0.00,0.0,WeatherDisplay:10.37,2013-09-13 09:55:00,
2013-09-13 06:00:00,66.0,55.5,29.76,NW,317,0.8,4.6,69,0.00,BKN,,0.00,0.0,WeatherDisplay:10.37,2013-09-13 10:00:00,
2013-09-13 06:05:00,65.8,55.3,29.76,NW,313,1.2,3.5,69,0.00,SCT,,0.00,0.0,WeatherDisplay:10.37,2013-09-13 10:05:00,
2013-09-13 06:10:00,65.6,55.5,29.76,NW,313,2.0,4.6,70,0.00,SCT,,0.00,0.0,WeatherDisplay:10.37,2013-09-13 10:10:00,
2013-09-13 06:15:00,65.5,55.5,29.76,NW,304,1.5,3.5,70,0.00,SCT,,0.00,0.0,WeatherDisplay:10.37,2013-09-13 10:15:00,
2013-09-13 06:20:00,65.5,55.5,29.76,NW,304,0.7,3.5,70,0.00,SCT,,0.00,0.0,WeatherDisplay:10.37,2013-09-13 10:20:00,
2013-09-13 06:25:00,65.5,55.8,29.76,NW,304,0.0,0.0,71,0.00,SCT,,0.00,0.0,WeatherDisplay:10.37,2013-09-13 10:25:00,
2013-09-13 06:30:00,65.3,55.7,29.76,NW,304,0.0,0.0,71,0.00,SCT,,0.00,0.0,WeatherDisplay:10.37,2013-09-13 10:30:00,
2013-09-13 06:35:00,65.3,55.7,29.76,NW,304,0.0,0.0,71,0.00,SCT,,0.00,0.0,WeatherDisplay:10.37,2013-09-13 10:35:00,
2013-09-13 06:40:00,65.2,55.6,29.76,NW,304,0.1,1.5,71,0.00,SCT,,0.00,0.0,WeatherDisplay:10.37,2013-09-13 10:40:00,
2013-09-13 06:45:00,65.2,55.9,29.76,NW,304,2.1,4.6,72,0.00,SCT,,0.00,0.0,WeatherDisplay:10.37,2013-09-13 10:45:00,
2013-09-13 06:50:00,65.2,55.9,29.76,NW,304,0.1,1.2,72,0.00,SCT,,0.00,0.0,WeatherDisplay:10.37,2013-09-13 10:50:00,
2013-09-13 06:55:00,65.0,56.1,29.76,NW,304,0.0,0.0,73,0.00,SCT,,0.00,0.0,WeatherDisplay:10.37,2013-09-13 10:55:00,
2013-09-13 07:00:00,65.0,56.1,29.76,NW,304,0.0,0.0,73,0.00,SCT,,0.00,0.0,WeatherDisplay:10.37,2013-09-13 11:00:00,
2013-09-13 07:05:00,64.8,55.9,29.76,NW,304,0.1,3.5,73,0.00,OVC,,0.00,0.0,WeatherDisplay:10.37,2013-09-13 11:05:00,
2013-09-13 07:10:00,64.8,56.3,29.77,NW,304,0.0,0.0,74,0.00,OVC,,0.00,0.0,WeatherDisplay:10.37,2013-09-13 11:10:00,
2013-09-13 07:15:00,64.8,56.3,29.77,NW,304,1.3,4.6,74,0.00,OVC,,0.00,5.0,WeatherDisplay:10.37,2013-09-13 11:15:00,
2013-09-13 07:20:00,64.8,56.3,29.77,WNW,302,5.4,6.0,74,0.00,OVC,,0.00,5.0,WeatherDisplay:10.37,2013-09-13 11:20:00,
2013-09-13 07:25:00,64.7,56.2,29.78,WNW,288,0.7,4.5,74,0.00,OVC,,0.00,5.0,WeatherDisplay:10.37,2013-09-13 11:25:00,
2013-09-13 07:30:00,64.7,56.2,29.78,WNW,284,1.8,4.6,74,0.00,OVC,,0.00,7.0,WeatherDisplay:10.37,2013-09-13 11:30:00,
2013-09-13 07:35:00,64.7,55.8,29.79,West,280,3.2,6.0,73,0.00,OVC,,0.00,9.0,WeatherDisplay:10.37,2013-09-13 11:35:00,
2013-09-13 07:40:00,64.7,55.8,29.79,WNW,283,0.7,4.6,73,0.00,OVC,,0.00,9.0,WeatherDisplay:10.37,2013-09-13 11:40:00,
2013-09-13 07:45:00,64.7,55.8,29.79,WNW,283,5.5,8.1,73,0.00,OVC,,0.00,23.0,WeatherDisplay:10.37,2013-09-13 11:45:00,
2013-09-13 07:50:00,64.7,55.8,29.79,WNW,291,4.4,8.1,73,0.00,OVC,,0.00,19.0,WeatherDisplay:10.37,2013-09-13 11:50:00,
2013-09-13 07:55:00,64.7,56.2,29.79,WNW,291,0.1,1.2,74,0.00,OVC,,0.00,25.0,WeatherDisplay:10.37,2013-09-13 11:55:00,
2013-09-13 08:00:00,64.7,55.8,29.78,WNW,289,0.0,1.2,73,0.00,OVC,,0.00,44.0,WeatherDisplay:10.37,2013-09-13 12:00:00,
2013-09-13 08:05:00,64.7,55.8,29.79,WNW,283,5.2,6.0,73,0.00,OVC,,0.00,62.0,WeatherDisplay:10.37,2013-09-13 12:05:00,
2013-09-13 08:10:00,64.8,55.9,29.79,WNW,283,0.0,0.0,73,0.00,OVC,,0.00,47.0,WeatherDisplay:10.37,2013-09-13 12:10:00,
2013-09-13 08:15:00,65.0,56.1,29.79,WNW,284,0.0,0.0,73,0.00,OVC,,0.00,54.0,WeatherDisplay:10.37,2013-09-13 12:15:00,
2013-09-13 08:20:00,65.0,55.8,29.79,WNW,284,2.3,3.5,72,0.00,OVC,,0.00,56.0,WeatherDisplay:10.37,2013-09-13 12:20:00,
2013-09-13 08:25:00,65.0,55.8,29.80,NW,320,3.8,5.8,72,0.00,OVC,,0.00,63.0,WeatherDisplay:10.37,2013-09-13 12:25:00,
2013-09-13 08:30:00,65.2,55.9,29.80,NW,304,0.4,3.5,72,0.00,OVC,,0.00,98.0,WeatherDisplay:10.37,2013-09-13 12:30:00,
2013-09-13 08:35:00,65.3,56.0,29.80,NW,324,0.5,1.5,72,0.00,OVC,,0.00,134.0,WeatherDisplay:10.37,2013-09-13 12:35:00,
2013-09-13 08:40:00,65.5,56.2,29.80,NW,317,2.9,6.0,72,0.00,OVC,,0.00,153.0,WeatherDisplay:10.37,2013-09-13 12:40:00,
2013-09-13 08:45:00,65.6,55.2,29.80,West,278,8.9,18.0,69,0.00,OVC,,0.00,146.0,WeatherDisplay:10.37,2013-09-13 12:45:00,
2013-09-13 08:50:00,66.0,55.1,29.80,NW,304,4.2,8.1,68,0.00,OVC,,0.00,167.0,WeatherDisplay:10.37,2013-09-13 12:50:00,
2013-09-13 08:55:00,66.0,53.9,29.80,NNW,334,7.7,13.8,65,0.00,OVC,,0.00,118.0,WeatherDisplay:10.37,2013-09-13 12:55:00,
2013-09-13 09:00:00,66.0,53.0,29.81,NW,307,11.6,16.1,63,0.00,OVC,,0.00,62.0,WeatherDisplay:10.37,2013-09-13 13:00:00,
2013-09-13 09:05:00,65.6,52.7,29.81,NNW,331,8.8,10.4,63,0.00,OVC,,0.00,373.0,WeatherDisplay:10.37,2013-09-13 13:05:00,
2013-09-13 09:10:00,66.3,52.9,29.81,WNW,302,8.3,11.5,62,0.00,OVC,,0.00,388.0,WeatherDisplay:10.37,2013-09-13 13:10:00,
2013-09-13 09:15:00,66.8,51.5,29.81,NW,306,14.8,18.4,58,0.00,-RA,,0.00,420.0,WeatherDisplay:10.37,2013-09-13 13:15:00,
2013-09-13 09:20:00,67.3,51.5,29.81,NNW,348,19.0,21.0,57,0.00,-RA,,0.00,424.0,WeatherDisplay:10.37,2013-09-13 13:20:00,
2013-09-13 09:25:00,67.3,51.1,29.81,NW,307,16.1,25.3,56,0.00,-RA,,0.00,432.0,WeatherDisplay:10.37,2013-09-13 13:25:00,
2013-09-13 09:30:00,67.4,51.6,29.81,North,351,12.6,16.1,57,0.00,-RA,,0.00,446.0,WeatherDisplay:10.37,2013-09-13 13:30:00,
2013-09-13 09:35:00,67.6,51.3,29.81,North,350,13.8,21.0,56,0.00,-RA,,0.00,450.0,WeatherDisplay:10.37,2013-09-13 13:35:00,
2013-09-13 09:40:00,67.6,50.9,29.81,NW,309,10.9,18.4,55,0.00,-RA,,0.00,466.0,WeatherDisplay:10.37,2013-09-13 13:40:00,
2013-09-13 09:45:00,67.9,50.6,29.81,NNW,343,21.0,28.8,54,0.00,-RA,,0.00,480.0,WeatherDisplay:10.37,2013-09-13 13:45:00,
2013-09-13 09:50:00,67.9,50.6,29.81,WNW,292,18.9,18.9,54,0.00,-RA,,0.00,492.0,WeatherDisplay:10.37,2013-09-13 13:50:00,
2013-09-13 09:55:00,68.1,51.3,29.81,NNW,342,12.9,20.7,55,0.00,-RA,,0.00,504.0,WeatherDisplay:10.37,2013-09-13 13:55:00,
2013-09-13 10:00:00,68.3,52.0,29.81,NNE,22,18.3,18.3,56,0.00,-RA,,0.00,515.0,WeatherDisplay:10.37,2013-09-13 14:00:00,
2013-09-13 10:05:00,68.4,51.1,29.81,NNW,331,20.8,25.5,54,0.00,-RA,,0.00,534.0,WeatherDisplay:10.37,2013-09-13 14:05:00,
2013-09-13 10:10:00,68.6,51.8,29.81,NW,317,18.5,22.5,55,0.00,-RA,,0.00,550.0,WeatherDisplay:10.37,2013-09-13 14:10:00,
2013-09-13 10:15:00,68.9,52.1,29.81,WNW,297,9.9,13.8,55,0.00,BKN,,0.00,559.0,WeatherDisplay:10.37,2013-09-13 14:15:00,
2013-09-13 10:20:00,69.3,51.9,29.81,WNW,290,14.0,16.5,54,0.00,BKN,,0.00,570.0,WeatherDisplay:10.37,2013-09-13 14:20:00,
2013-09-13 10:25:00,69.1,51.8,29.81,NW,304,14.5,16.1,54,0.00,BKN,,0.00,596.0,WeatherDisplay:10.37,2013-09-13 14:25:00,
2013-09-13 10:30:00,69.4,51.5,29.82,WNW,298,13.2,16.5,53,0.00,BKN,,0.00,631.0,WeatherDisplay:10.37,2013-09-13 14:30:00,
2013-09-13 10:35:00,69.3,50.9,29.82,NNW,344,16.4,19.6,52,0.00,BKN,,0.00,668.0,WeatherDisplay:10.37,2013-09-13 14:35:00,
2013-09-13 10:40:00,69.6,50.7,29.82,North,355,16.9,20.7,51,0.00,BKN,,0.00,721.0,WeatherDisplay:10.37,2013-09-13 14:40:00,
2013-09-13 10:45:00,69.8,50.3,29.82,NW,317,16.5,18.4,50,0.00,BKN,,0.00,663.0,WeatherDisplay:10.37,2013-09-13 14:45:00,
2013-09-13 10:50:00,69.9,50.4,29.82,North,360,25.8,25.8,50,0.00,BKN,,0.00,643.0,WeatherDisplay:10.37,2013-09-13 14:50:00,
2013-09-13 10:55:00,70.1,50.0,29.82,NW,326,18.0,23.0,49,0.00,BKN,,0.00,650.0,WeatherDisplay:10.37,2013-09-13 14:55:00,
2013-09-13 11:00:00,70.6,51.1,29.81,NNW,340,11.4,20.7,50,0.00,BKN,,0.00,647.0,WeatherDisplay:10.37,2013-09-13 15:00:00,
2013-09-13 11:05:00,70.8,50.1,29.81,WNW,298,22.0,22.0,48,0.00,SCT,,0.00,670.0,WeatherDisplay:10.37,2013-09-13 15:05:00,
2013-09-13 11:10:00,70.9,50.8,29.82,WNW,297,9.4,18.4,49,0.00,SCT,,0.00,673.0,WeatherDisplay:10.37,2013-09-13 15:10:00,
2013-09-13 11:15:00,71.3,50.6,29.82,NNW,342,18.2,19.5,48,0.00,SCT,,0.00,698.0,WeatherDisplay:10.37,2013-09-13 15:15:00,
2013-09-13 11:20:00,71.5,50.2,29.82,NNW,340,16.2,21.0,47,0.00,SCT,,0.00,731.0,WeatherDisplay:10.37,2013-09-13 15:20:00,
2013-09-13 11:25:00,71.6,50.3,29.82,NW,324,12.0,13.8,47,0.00,SCT,,0.00,733.0,WeatherDisplay:10.37,2013-09-13 15:25:00,
2013-09-13 11:30:00,71.8,50.5,29.82,NNW,338,12.5,16.1,47,0.00,SCT,,0.00,758.0,WeatherDisplay:10.37,2013-09-13 15:30:00,
2013-09-13 11:35:00,72.1,50.8,29.82,NW,326,20.6,21.0,47,0.00,SCT,,0.00,777.0,WeatherDisplay:10.37,2013-09-13 15:35:00,
2013-09-13 11:40:00,72.0,49.5,29.82,NW,313,10.2,15.0,45,0.00,SCT,,0.00,737.0,WeatherDisplay:10.37,2013-09-13 15:40:00,
2013-09-13 11:45:00,72.0,50.1,29.82,WNW,302,8.6,21.0,46,0.00,SCT,,0.00,742.0,WeatherDisplay:10.37,2013-09-13 15:45:00,
2013-09-13 11:50:00,72.3,49.8,29.81,NW,309,10.7,16.5,45,0.00,SCT,,0.00,715.0,WeatherDisplay:10.37,2013-09-13 15:50:00,
2013-09-13 11:55:00,72.5,48.7,29.81,WNW,282,12.3,16.1,43,0.00,SCT,,0.00,786.0,WeatherDisplay:10.37,2013-09-13 15:55:00,
2013-09-13 12:00:00,72.5,49.9,29.82,North,350,8.5,13.5,45,0.00,SCT,,0.00,823.0,WeatherDisplay:10.37,2013-09-13 16:00:00,
2013-09-13 12:05:00,72.5,49.3,29.82,WNW,290,10.5,13.8,44,0.00,SCT,,0.00,803.0,WeatherDisplay:10.37,2013-09-13 16:05:00,
2013-09-13 12:10:00,73.0,49.2,29.81,NNE,13,12.4,16.5,43,0.00,SCT,,0.00,812.0,WeatherDisplay:10.37,2013-09-13 16:10:00,
2013-09-13 12:15:00,73.0,48.5,29.81,NNW,338,8.4,13.8,42,0.00,BKN,,0.00,821.0,WeatherDisplay:10.37,2013-09-13 16:15:00,
2013-09-13 12:20:00,73.7,47.2,29.81,West,265,16.3,19.6,39,0.00,BKN,,0.00,935.0,WeatherDisplay:10.37,2013-09-13 16:20:00,
2013-09-13 12:25:00,73.3,47.5,29.81,NW,319,17.7,17.7,40,0.00,BKN,,0.00,223.0,WeatherDisplay:10.37,2013-09-13 16:25:00,
2013-09-13 12:30:00,73.0,47.2,29.81,NW,317,11.9,18.4,40,0.00,BKN,,0.00,916.0,WeatherDisplay:10.37,2013-09-13 16:30:00,
2013-09-13 12:35:00,72.7,47.0,29.82,NW,317,16.8,20.7,40,0.00,BKN,,0.00,838.0,WeatherDisplay:10.37,2013-09-13 16:35:00,
2013-09-13 12:40:00,73.2,48.7,29.81,WNW,301,12.5,21.0,42,0.00,BKN,,0.00,846.0,WeatherDisplay:10.37,2013-09-13 16:40:00,
2013-09-13 12:45:00,73.7,47.2,29.81,WNW,286,13.4,18.4,39,0.00,BKN,,0.00,935.0,WeatherDisplay:10.37,2013-09-13 16:45:00,
2013-09-13 12:50:00,73.5,47.0,29.81,NW,315,12.4,16.1,39,0.00,BKN,,0.00,221.0,WeatherDisplay:10.37,2013-09-13 16:50:00,
2013-09-13 12:55:00,73.3,48.8,29.81,NW,304,13.6,19.6,42,0.00,BKN,,0.00,807.0,WeatherDisplay:10.37,2013-09-13 16:55:00,
2013-09-13 13:00:00,74.0,48.8,29.81,NNW,333,9.0,13.5,41,0.00,BKN,,0.00,837.0,WeatherDisplay:10.37,2013-09-13 17:00:00,
2013-09-13 13:05:00,74.0,47.5,29.80,NW,316,8.5,12.0,39,0.00,BKN,,0.00,176.0,WeatherDisplay:10.37,2013-09-13 17:05:00,
2013-09-13 13:10:00,73.2,46.8,29.81,NW,315,13.0,13.0,39,0.00,BKN,,0.00,186.0,WeatherDisplay:10.37,2013-09-13 17:10:00,
2013-09-13 13:15:00,72.3,47.3,29.81,NW,322,6.4,10.5,41,0.00,BKN,,0.00,243.0,WeatherDisplay:10.37,2013-09-13 17:15:00,
2013-09-13 13:20:00,72.1,45.8,29.81,NW,308,7.7,15.0,39,0.00,BKN,,0.00,241.0,WeatherDisplay:10.37,2013-09-13 17:20:00,
2013-09-13 13:25:00,72.3,45.9,29.80,WNW,298,11.0,15.0,39,0.00,BKN,,0.00,863.0,WeatherDisplay:10.37,2013-09-13 17:25:00,
2013-09-13 13:30:00,73.5,45.6,29.80,NNW,345,17.7,18.4,37,0.00,BKN,,0.00,875.0,WeatherDisplay:10.37,2013-09-13 17:30:00,
2013-09-13 13:35:00,75.1,48.4,29.80,WNW,289,10.7,18.0,39,0.00,BKN,,0.00,905.0,WeatherDisplay:10.37,2013-09-13 17:35:00,
2013-09-13 13:40:00,75.1,45.6,29.80,NW,320,18.2,19.6,35,0.00,BKN,,0.00,911.0,WeatherDisplay:10.37,2013-09-13 17:40:00,
2013-09-13 13:45:00,74.7,46.7,29.80,West,268,10.3,16.5,37,0.00,BKN,,0.00,995.0,WeatherDisplay:10.37,2013-09-13 17:45:00,
2013-09-13 13:50:00,74.9,46.1,29.80,WNW,301,8.6,8.6,36,0.00,BKN,,0.00,953.0,WeatherDisplay:10.37,2013-09-13 17:50:00,
2013-09-13 13:55:00,74.2,44.8,29.80,NW,315,16.3,18.4,35,0.00,BKN,,0.00,417.0,WeatherDisplay:10.37,2013-09-13 17:55:00,
2013-09-13 14:00:00,73.7,47.2,29.80,NW,321,10.1,12.0,39,0.00,BKN,,0.00,308.0,WeatherDisplay:10.37,2013-09-13 18:00:00,
2013-09-13 14:05:00,74.2,47.6,29.80,WNW,283,8.7,11.5,39,0.00,BKN,,0.00,944.0,WeatherDisplay:10.37,2013-09-13 18:05:00,
2013-09-13 14:10:00,74.6,45.9,29.80,NW,320,18.3,18.4,36,0.00,BKN,,0.00,265.0,WeatherDisplay:10.37,2013-09-13 18:10:00,
2013-09-13 14:15:00,73.9,46.0,29.80,West,267,13.8,16.5,37,0.00,BKN,,0.00,814.0,WeatherDisplay:10.37,2013-09-13 18:15:00,
2013-09-13 14:20:00,74.2,47.0,29.80,North,5,16.1,19.6,38,0.00,BKN,,0.00,793.0,WeatherDisplay:10.37,2013-09-13 18:20:00,
2013-09-13 14:25:00,74.9,46.9,29.80,NW,315,9.3,12.0,37,0.00,BKN,,0.00,770.0,WeatherDisplay:10.37,2013-09-13 18:25:00,
2013-09-13 14:30:00,75.6,46.0,29.80,NNW,344,10.4,16.5,35,0.00,BKN,,0.00,779.0,WeatherDisplay:10.37,2013-09-13 18:30:00,
2013-09-13 14:35:00,75.1,45.6,29.80,WNW,296,12.4,26.5,35,0.00,BKN,,0.00,749.0,WeatherDisplay:10.37,2013-09-13 18:35:00,
2013-09-13 14:40:00,75.1,44.8,29.80,North,349,7.6,13.8,34,0.00,BKN,,0.00,740.0,WeatherDisplay:10.37,2013-09-13 18:40:00,
2013-09-13 14:45:00,75.4,44.3,29.80,NW,318,7.5,9.2,33,0.00,BKN,,0.00,424.0,WeatherDisplay:10.37,2013-09-13 18:45:00,
2013-09-13 14:50:00,75.1,44.8,29.80,West,280,10.8,15.0,34,0.00,BKN,,0.00,780.0,WeatherDisplay:10.37,2013-09-13 18:50:00,
2013-09-13 14:55:00,75.1,44.8,29.80,NW,304,12.5,19.6,34,0.00,BKN,,0.00,777.0,WeatherDisplay:10.37,2013-09-13 18:55:00,
2013-09-13 15:00:00,75.4,44.3,29.80,West,279,6.8,9.0,33,0.00,BKN,,0.00,188.0,WeatherDisplay:10.37,2013-09-13 19:00:00,
2013-09-13 15:05:00,74.7,45.2,29.80,WNW,302,6.3,9.2,35,0.00,BKN,,0.00,258.0,WeatherDisplay:10.37,2013-09-13 19:05:00,
2013-09-13 15:10:00,74.2,46.2,29.80,West,280,1.8,9.2,37,0.00,BKN,,0.00,169.0,WeatherDisplay:10.37,2013-09-13 19:10:00,
2013-09-13 15:15:00,73.9,46.7,29.80,NW,310,7.4,10.4,38,0.00,BKN,,0.00,200.0,WeatherDisplay:10.37,2013-09-13 19:15:00,
2013-09-13 15:20:00,73.5,45.6,29.80,NW,311,7.9,15.0,37,0.00,BKN,,0.00,664.0,WeatherDisplay:10.37,2013-09-13 19:20:00,
2013-09-13 15:25:00,73.5,44.9,29.80,NW,309,12.6,15.0,36,0.00,BKN,,0.00,128.0,WeatherDisplay:10.37,2013-09-13 19:25:00,
2013-09-13 15:30:00,72.8,44.3,29.80,West,267,10.3,13.8,36,0.00,BKN,,0.00,142.0,WeatherDisplay:10.37,2013-09-13 19:30:00,
2013-09-13 15:35:00,72.1,45.1,29.80,West,263,6.7,9.0,38,0.00,BKN,,0.00,151.0,WeatherDisplay:10.37,2013-09-13 19:35:00,
2013-09-13 15:40:00,73.0,47.9,29.80,WNW,290,8.1,9.0,41,0.00,BKN,,0.00,622.0,WeatherDisplay:10.37,2013-09-13 19:40:00,
2013-09-13 15:45:00,73.5,47.7,29.80,West,264,4.6,10.4,40,0.00,BKN,,0.00,585.0,WeatherDisplay:10.37,2013-09-13 19:45:00,
2013-09-13 15:50:00,74.0,48.8,29.80,WNW,299,5.4,9.2,41,0.00,BKN,,0.00,573.0,WeatherDisplay:10.37,2013-09-13 19:50:00,
2013-09-13 15:55:00,74.4,46.4,29.79,WNW,295,11.7,13.5,37,0.00,BKN,,0.00,570.0,WeatherDisplay:10.37,2013-09-13 19:55:00,
2013-09-13 16:00:00,74.6,46.6,29.79,WNW,289,8.2,8.2,37,0.00,BKN,,0.00,568.0,WeatherDisplay:10.37,2013-09-13 20:00:00,
2013-09-13 16:05:00,74.6,45.9,29.80,WNW,285,9.3,10.5,36,0.00,BKN,,0.00,559.0,WeatherDisplay:10.37,2013-09-13 20:05:00,
2013-09-13 16:10:00,74.7,46.7,29.79,NW,322,10.4,13.8,37,0.00,BKN,,0.00,568.0,WeatherDisplay:10.37,2013-09-13 20:10:00,
2013-09-13 16:15:00,74.6,47.3,29.80,NW,305,26.2,29.9,38,0.00,BKN,,0.00,638.0,WeatherDisplay:10.37,2013-09-13 20:15:00,
2013-09-13 16:20:00,72.0,48.9,29.80,NW,313,21.9,26.5,44,0.00,BKN,,0.00,520.0,WeatherDisplay:10.37,2013-09-13 20:20:00,
2013-09-13 16:25:00,70.9,49.1,29.80,North,9,21.5,25.3,46,0.00,BKN,,0.00,504.0,WeatherDisplay:10.37,2013-09-13 20:25:00,
2013-09-13 16:30:00,70.3,49.1,29.80,NNW,330,22.2,24.0,47,0.00,BKN,,0.00,469.0,WeatherDisplay:10.37,2013-09-13 20:30:00,
2013-09-13 16:35:00,70.3,50.2,29.80,NNW,327,13.3,16.1,49,0.00,BKN,,0.00,452.0,WeatherDisplay:10.37,2013-09-13 20:35:00,
2013-09-13 16:40:00,70.4,50.3,29.80,NNW,339,18.0,21.0,49,0.00,BKN,,0.00,443.0,WeatherDisplay:10.37,2013-09-13 20:40:00,
2013-09-13 16:45:00,70.3,49.1,29.81,North,355,18.0,23.0,47,0.00,BKN,,0.00,429.0,WeatherDisplay:10.37,2013-09-13 20:45:00,
2013-09-13 16:50:00,69.9,48.7,29.80,NNW,330,28.2,29.9,47,0.00,BKN,,0.00,417.0,WeatherDisplay:10.37,2013-09-13 20:50:00,
2013-09-13 16:55:00,69.4,49.9,29.81,NNW,334,24.8,31.5,50,0.00,BKN,,0.00,392.0,WeatherDisplay:10.37,2013-09-13 20:55:00,
2013-09-13 17:00:00,68.8,49.4,29.81,North,360,22.9,25.3,50,0.00,BKN,,0.00,76.0,WeatherDisplay:10.37,2013-09-13 21:00:00,
2013-09-13 17:05:00,67.4,49.2,29.81,NNW,338,22.8,30.0,52,0.00,BKN,,0.00,86.0,WeatherDisplay:10.37,2013-09-13 21:05:00,
2013-09-13 17:10:00,66.9,49.7,29.81,North,349,14.7,18.4,54,0.00,BKN,,0.00,100.0,WeatherDisplay:10.37,2013-09-13 21:10:00,
2013-09-13 17:15:00,67.6,50.4,29.81,NW,309,6.5,8.1,54,0.00,SCT,,0.00,360.0,WeatherDisplay:10.37,2013-09-13 21:15:00,
2013-09-13 17:20:00,68.1,50.8,29.82,NW,309,13.3,16.5,54,0.00,SCT,,0.00,329.0,WeatherDisplay:10.37,2013-09-13 21:20:00,
2013-09-13 17:25:00,68.1,50.8,29.82,NW,323,13.4,16.5,54,0.00,SCT,,0.00,325.0,WeatherDisplay:10.37,2013-09-13 21:25:00,
2013-09-13 17:30:00,67.9,50.6,29.82,NW,325,16.1,24.2,54,0.00,SCT,,0.00,325.0,WeatherDisplay:10.37,2013-09-13 21:30:00,
2013-09-13 17:35:00,68.1,51.3,29.82,NNW,333,17.2,19.6,55,0.00,SCT,,0.00,313.0,WeatherDisplay:10.37,2013-09-13 21:35:00,
2013-09-13 17:40:00,68.1,50.8,29.82,NNE,22,19.0,19.6,54,0.00,SCT,,0.00,292.0,WeatherDisplay:10.37,2013-09-13 21:40:00,
2013-09-13 17:45:00,67.8,50.5,29.82,NW,326,11.6,15.0,54,0.00,SCT,,0.00,248.0,WeatherDisplay:10.37,2013-09-13 21:45:00,
2013-09-13 17:50:00,67.9,50.1,29.82,NNW,344,8.5,9.2,53,0.00,SCT,,0.00,232.0,WeatherDisplay:10.37,2013-09-13 21:50:00,
2013-09-13 17:55:00,67.9,48.6,29.83,NNW,329,17.1,25.3,50,0.00,SCT,,0.00,225.0,WeatherDisplay:10.37,2013-09-13 21:55:00,
2013-09-13 18:00:00,67.8,48.5,29.83,NNW,331,11.5,19.6,50,0.00,SCT,,0.00,155.0,WeatherDisplay:10.37,2013-09-13 22:00:00,
2013-09-13 18:05:00,67.8,48.5,29.83,NNE,15,12.2,18.4,50,0.00,SCT,,0.00,179.0,WeatherDisplay:10.37,2013-09-13 22:05:00,
2013-09-13 18:10:00,67.6,48.3,29.83,NW,325,9.0,18.4,50,0.00,SCT,,0.00,148.0,WeatherDisplay:10.37,2013-09-13 22:10:00,
2013-09-13 18:15:00,67.6,48.3,29.84,WNW,291,16.3,22.5,50,0.00,BKN,,0.00,130.0,WeatherDisplay:10.37,2013-09-13 22:15:00,
2013-09-13 18:20:00,67.1,48.4,29.84,North,355,16.1,19.5,51,0.00,BKN,,0.00,111.0,WeatherDisplay:10.37,2013-09-13 22:20:00,
2013-09-13 18:25:00,66.8,48.1,29.84,NNW,342,15.4,16.1,51,0.00,BKN,,0.00,95.0,WeatherDisplay:10.37,2013-09-13 22:25:00,
2013-09-13 18:30:00,66.4,48.2,29.85,NNW,329,15.1,20.7,52,0.00,BKN,,0.00,77.0,WeatherDisplay:10.37,2013-09-13 22:30:00,
2013-09-13 18:35:00,66.1,48.5,29.85,NW,323,15.3,18.4,53,0.00,BKN,,0.00,60.0,WeatherDisplay:10.37,2013-09-13 22:35:00,
2013-09-13 18:40:00,65.8,48.7,29.85,NNW,341,6.4,10.4,54,0.00,BKN,,0.00,40.0,WeatherDisplay:10.37,2013-09-13 22:40:00,
2013-09-13 18:45:00,65.5,48.9,29.86,NNW,327,2.4,6.0,55,0.00,BKN,,0.00,35.0,WeatherDisplay:10.37,2013-09-13 22:45:00,
2013-09-13 18:50:00,65.3,48.7,29.86,NNW,339,4.5,13.5,55,0.00,BKN,,0.00,25.0,WeatherDisplay:10.37,2013-09-13 22:50:00,
2013-09-13 18:55:00,65.0,48.4,29.86,NW,306,3.3,7.5,55,0.00,BKN,,0.00,16.0,WeatherDisplay:10.37,2013-09-13 22:55:00,
2013-09-13 19:00:00,64.5,48.4,29.86,WNW,301,3.2,6.0,56,0.00,BKN,,0.00,12.0,WeatherDisplay:10.37,2013-09-13 23:00:00,
2013-09-13 19:05:00,64.0,48.9,29.87,NW,321,5.1,7.5,58,0.00,BKN,,0.00,9.0,WeatherDisplay:10.37,2013-09-13 23:05:00,
2013-09-13 19:10:00,63.7,48.6,29.87,WNW,284,8.9,10.5,58,0.00,BKN,,0.00,7.0,WeatherDisplay:10.37,2013-09-13 23:10:00,
2013-09-13 19:15:00,63.4,48.8,29.87,WNW,289,9.6,13.8,59,0.00,SCT,,0.00,5.0,WeatherDisplay:10.37,2013-09-13 23:15:00,
2013-09-13 19:20:00,63.4,48.4,29.88,NW,319,10.8,16.5,58,0.00,SCT,,0.00,0.0,WeatherDisplay:10.37,2013-09-13 23:20:00,
2013-09-13 19:25:00,63.4,47.9,29.88,NNW,327,8.3,16.1,57,0.00,SCT,,0.00,0.0,WeatherDisplay:10.37,2013-09-13 23:25:00,
2013-09-13 19:30:00,63.4,47.9,29.88,NW,305,7.8,9.2,57,0.00,SCT,,0.00,0.0,WeatherDisplay:10.37,2013-09-13 23:30:00,
2013-09-13 19:35:00,63.4,47.9,29.88,NW,323,0.7,3.5,57,0.00,SCT,,0.00,0.0,WeatherDisplay:10.37,2013-09-13 23:35:00,
2013-09-13 19:40:00,63.1,47.6,29.89,NW,314,5.6,8.1,57,0.00,SCT,,0.00,0.0,WeatherDisplay:10.37,2013-09-13 23:40:00,
2013-09-13 19:45:00,62.7,47.7,29.90,NNW,328,4.4,6.0,58,0.00,SCT,,0.00,0.0,WeatherDisplay:10.37,2013-09-13 23:45:00,
2013-09-13 19:50:00,62.6,47.6,29.90,WNW,299,5.0,9.0,58,0.00,SCT,,0.00,0.0,WeatherDisplay:10.37,2013-09-13 23:50:00,
2013-09-13 19:55:00,62.6,47.1,29.90,NNW,333,6.0,9.0,57,0.00,SCT,,0.00,0.0,WeatherDisplay:10.37,2013-09-13 23:55:00,
2013-09-13 20:00:00,62.3,46.9,29.90,WNW,299,8.6,9.2,57,0.00,SCT,,0.00,0.0,WeatherDisplay:10.37,2013-09-14 00:00:00,
2013-09-13 20:05:00,62.1,46.2,29.91,NW,321,8.4,13.8,56,0.00,SCT,,0.00,0.0,WeatherDisplay:10.37,2013-09-14 00:05:00,
2013-09-13 20:10:00,62.0,46.6,29.91,WNW,296,5.0,8.1,57,0.00,SCT,,0.00,0.0,WeatherDisplay:10.37,2013-09-14 00:10:00,
2013-09-13 20:15:00,61.8,46.4,29.91,WNW,285,5.4,8.1,57,0.00,BKN,,0.00,0.0,WeatherDisplay:10.37,2013-09-14 00:15:00,
2013-09-13 20:20:00,61.6,46.2,29.91,NW,306,7.0,13.8,57,0.00,BKN,,0.00,0.0,WeatherDisplay:10.37,2013-09-14 00:20:00,
2013-09-13 20:25:00,61.3,45.9,29.91,WNW,291,5.3,7.5,57,0.00,BKN,,0.00,0.0,WeatherDisplay:10.37,2013-09-14 00:25:00,
2013-09-13 20:30:00,61.0,46.1,29.91,NW,305,7.0,10.5,58,0.00,BKN,,0.00,0.0,WeatherDisplay:10.37,2013-09-14 00:30:00,
2013-09-13 20:35:00,60.7,45.8,29.91,NW,310,6.7,15.0,58,0.00,BKN,,0.00,0.0,WeatherDisplay:10.37,2013-09-14 00:35:00,
2013-09-13 20:40:00,60.4,46.0,29.91,NNW,334,16.5,20.7,59,0.00,BKN,,0.00,0.0,WeatherDisplay:10.37,2013-09-14 00:40:00,
2013-09-13 20:45:00,60.5,46.1,29.91,NW,319,18.1,19.6,59,0.00,BKN,,0.00,0.0,WeatherDisplay:10.37,2013-09-14 00:45:00,
2013-09-13 20:50:00,60.5,46.1,29.91,NW,319,15.4,21.0,59,0.00,BKN,,0.00,0.0,WeatherDisplay:10.37,2013-09-14 00:50:00,
2013-09-13 20:55:00,60.5,46.1,29.92,NNW,337,9.1,16.1,59,0.00,BKN,,0.00,0.0,WeatherDisplay:10.37,2013-09-14 00:55:00,
2013-09-13 21:00:00,60.4,46.4,29.92,WNW,302,10.4,16.1,60,0.00,BKN,,0.00,0.0,WeatherDisplay:10.37,2013-09-14 01:00:00,
2013-09-13 21:05:00,60.1,46.2,29.92,NW,321,6.4,13.8,60,0.00,BKN,,0.00,0.0,WeatherDisplay:10.37,2013-09-14 01:05:00,
2013-09-13 21:10:00,59.9,46.0,29.93,North,355,7.9,11.5,60,0.00,BKN,,0.00,0.0,WeatherDisplay:10.37,2013-09-14 01:10:00,
2013-09-13 21:15:00,59.9,46.0,29.93,NW,325,6.3,11.5,60,0.00,BKN,,0.00,0.0,WeatherDisplay:10.37,2013-09-14 01:15:00,
2013-09-13 21:20:00,59.8,45.9,29.94,NNW,333,0.7,3.5,60,0.00,BKN,,0.00,0.0,WeatherDisplay:10.37,2013-09-14 01:20:00,
2013-09-13 21:25:00,59.5,46.0,29.94,NNW,333,0.0,0.0,61,0.00,BKN,,0.00,0.0,WeatherDisplay:10.37,2013-09-14 01:25:00,
2013-09-13 21:30:00,59.2,46.2,29.94,NNW,333,0.9,4.6,62,0.00,BKN,,0.00,0.0,WeatherDisplay:10.37,2013-09-14 01:30:00,
2013-09-13 21:35:00,58.9,45.9,29.95,NNW,333,0.0,0.0,62,0.00,BKN,,0.00,0.0,WeatherDisplay:10.37,2013-09-14 01:35:00,
2013-09-13 21:40:00,58.6,45.6,29.95,NNW,333,0.0,0.0,62,0.00,BKN,,0.00,0.0,WeatherDisplay:10.37,2013-09-14 01:40:00,
2013-09-13 21:45:00,58.1,45.6,29.95,NNW,333,0.0,0.0,63,0.00,BKN,,0.00,0.0,WeatherDisplay:10.37,2013-09-14 01:45:00,
2013-09-13 21:50:00,57.6,45.5,29.95,NNW,333,0.0,0.0,64,0.00,BKN,,0.00,0.0,WeatherDisplay:10.37,2013-09-14 01:50:00,
2013-09-13 21:55:00,57.0,45.3,29.95,NNW,333,0.0,0.0,65,0.00,BKN,,0.00,0.0,WeatherDisplay:10.37,2013-09-14 01:55:00,
2013-09-13 22:00:00,57.0,45.7,29.95,NNW,333,0.0,0.0,66,0.00,BKN,,0.00,0.0,WeatherDisplay:10.37,2013-09-14 02:00:00,
2013-09-13 22:05:00,57.0,46.1,29.95,NNW,333,0.0,0.0,67,0.00,SCT,,0.00,0.0,WeatherDisplay:10.37,2013-09-14 02:05:00,
2013-09-13 22:10:00,56.9,46.1,29.95,NNW,333,0.1,1.2,67,0.00,SCT,,0.00,0.0,WeatherDisplay:10.37,2013-09-14 02:10:00,
2013-09-13 22:15:00,56.7,46.3,29.95,NNW,333,0.0,0.0,68,0.00,SCT,,0.00,0.0,WeatherDisplay:10.37,2013-09-14 02:15:00,
2013-09-13 22:20:00,56.5,46.1,29.96,NNW,333,1.2,3.5,68,0.00,SCT,,0.00,0.0,WeatherDisplay:10.37,2013-09-14 02:20:00,
2013-09-13 22:25:00,56.5,46.8,29.96,North,350,2.0,3.5,70,0.00,SCT,,0.00,0.0,WeatherDisplay:10.37,2013-09-14 02:25:00,
2013-09-13 22:30:00,56.2,46.5,29.97,North,350,0.0,0.0,70,0.00,SCT,,0.00,0.0,WeatherDisplay:10.37,2013-09-14 02:30:00,
2013-09-13 22:35:00,56.0,46.7,29.97,North,350,0.0,0.0,71,0.00,SCT,,0.00,0.0,WeatherDisplay:10.37,2013-09-14 02:35:00,
2013-09-13 22:40:00,55.7,46.4,29.96,NNW,348,0.4,3.0,71,0.00,SCT,,0.00,0.0,WeatherDisplay:10.37,2013-09-14 02:40:00,
2013-09-13 22:45:00,55.7,46.8,29.96,NNW,345,1.4,4.5,72,0.00,SCT,,0.00,0.0,WeatherDisplay:10.37,2013-09-14 02:45:00,
2013-09-13 22:50:00,55.9,47.0,29.96,NW,326,1.4,4.6,72,0.00,SCT,,0.00,0.0,WeatherDisplay:10.37,2013-09-14 02:50:00,
2013-09-13 22:55:00,56.0,47.1,29.96,NW,325,0.6,1.5,72,0.00,SCT,,0.00,0.0,WeatherDisplay:10.37,2013-09-14 02:55:00,
2013-09-13 23:00:00,56.2,46.9,29.96,NNW,331,3.2,6.0,71,0.00,SCT,,0.00,0.0,WeatherDisplay:10.37,2013-09-14 03:00:00,
2013-09-13 23:05:00,56.5,46.8,29.96,NW,315,6.0,9.0,70,0.00,SCT,,0.00,0.0,WeatherDisplay:10.37,2013-09-14 03:05:00,
2013-09-13 23:10:00,56.5,46.8,29.96,NW,316,7.3,15.0,70,0.00,SCT,,0.00,0.0,WeatherDisplay:10.37,2013-09-14 03:10:00,
2013-09-13 23:15:00,56.5,46.4,29.96,WNW,294,5.7,13.8,69,0.00,SCT,,0.00,0.0,WeatherDisplay:10.37,2013-09-14 03:15:00,
2013-09-13 23:20:00,56.6,46.2,29.96,North,5,4.5,8.1,68,0.00,SCT,,0.00,0.0,WeatherDisplay:10.37,2013-09-14 03:20:00,
2013-09-13 23:25:00,56.6,45.4,29.96,NW,306,2.6,6.0,66,0.00,SCT,,0.00,0.0,WeatherDisplay:10.37,2013-09-14 03:25:00,
2013-09-13 23:30:00,56.5,45.3,29.97,NW,311,2.9,5.8,66,0.00,SCT,,0.00,0.0,WeatherDisplay:10.37,2013-09-14 03:30:00,
2013-09-13 23:35:00,56.3,45.5,29.97,NW,312,1.5,4.6,67,0.00,SCT,,0.00,0.0,WeatherDisplay:10.37,2013-09-14 03:35:00,
2013-09-13 23:40:00,56.3,45.5,29.97,WNW,299,6.8,10.5,67,0.00,SCT,,0.00,0.0,WeatherDisplay:10.37,2013-09-14 03:40:00,
2013-09-13 23:45:00,56.5,45.7,29.97,NW,316,9.6,13.8,67,0.00,SCT,,0.00,0.0,WeatherDisplay:10.37,2013-09-14 03:45:00,
2013-09-13 23:50:00,56.5,45.3,29.97,North,9,3.2,5.8,66,0.00,SCT,,0.00,0.0,WeatherDisplay:10.37,2013-09-14 03:50:00,
2013-09-13 23:55:00,56.5,45.3,29.97,NW,321,2.6,4.6,66,0.00,SCT,,0.00,0.0,WeatherDisplay:10.37,2013-09-14 03:55:00,